Time;durP1;ratioP1;P1;durP2;ratioP2;P2;SDS_P1;SDS_P2;PMS_P1;PMS_P2;Temp;Humidity;BMP_temperature;BMP_pressure;BME280_temperature;BME280_humidity;BME280_pressure;Samples;Min_cycle;Max_cycle;Signal;HPM_P1;HPM_P2
2023/04/01 00:01:19;;;;;;;3.58;2.65;;;;;;;11.53;100.00;99051.41;5108908;28;20053;-68
2023/04/01 00:03:45;;;;;;;4.10;2.67;;;;;;;11.49;100.00;99038.50;5108788;28;20115;-68
2023/04/01 00:06:13;;;;;;;4.75;2.70;;;;;;;11.44;100.00;99038.16;5107066;28;20123;-67
2023/04/01 00:08:39;;;;;;;6.18;2.42;;;;;;;11.46;100.00;99034.31;5108640;28;20028;-68
2023/04/01 00:11:05;;;;;;;3.47;2.40;;;;;;;11.40;100.00;99026.09;5106784;28;20035;-70
2023/04/01 00:13:31;;;;;;;4.25;1.90;;;;;;;11.40;100.00;99021.59;5108434;28;20039;-68
2023/04/01 00:15:56;;;;;;;2.78;1.98;;;;;;;11.39;100.00;99029.81;5108417;28;20035;-69
2023/04/01 00:18:22;;;;;;;2.13;1.88;;;;;;;11.37;100.00;99024.63;5108733;28;20466;-69
2023/04/01 00:20:50;;;;;;;2.42;1.98;;;;;;;11.39;100.00;99017.19;5108345;27;20026;-69
2023/04/01 00:23:16;;;;;;;4.03;2.28;;;;;;;11.23;100.00;98992.25;5108308;28;20024;-68
2023/04/01 00:25:43;;;;;;;4.68;2.00;;;;;;;11.38;100.00;99030.78;5106752;28;20421;-69
2023/04/01 00:28:09;;;;;;;2.80;2.25;;;;;;;11.12;100.00;98979.19;5108174;28;20020;-69
2023/04/01 00:30:36;;;;;;;4.82;2.20;;;;;;;11.38;100.00;99020.06;5107383;28;20035;-68
2023/04/01 00:33:02;;;;;;;2.08;1.88;;;;;;;11.42;100.00;99030.28;5107687;28;20471;-69
2023/04/01 00:35:28;;;;;;;3.22;2.00;;;;;;;11.36;100.00;99025.59;5107160;28;20029;-69
2023/04/01 00:37:54;;;;;;;3.97;2.00;;;;;;;11.41;100.00;99027.78;5108388;28;20035;-73
2023/04/01 00:40:31;;;;;;;2.08;1.88;;;;;;;11.35;100.00;99028.44;5106298;28;20034;-69
2023/04/01 00:42:57;;;;;;;3.25;2.17;;;;;;;11.23;100.00;99003.00;5108343;28;20026;-69
2023/04/01 00:45:33;;;;;;;4.20;2.35;;;;;;;11.32;100.00;99026.13;5107917;28;20110;-69
2023/04/01 00:48:02;;;;;;;2.90;2.05;;;;;;;11.30;100.00;99020.94;5106357;28;20039;-69
2023/04/01 00:50:30;;;;;;;2.22;1.88;;;;;;;11.25;100.00;99017.91;5107420;28;20036;-68
2023/04/01 00:52:56;;;;;;;5.53;2.78;;;;;;;11.20;100.00;99008.72;5107848;28;20034;-69
2023/04/01 00:55:23;;;;;;;4.65;2.92;;;;;;;11.30;100.00;99026.31;5107680;28;20372;-68
2023/04/01 00:57:52;;;;;;;4.53;2.95;;;;;;;11.25;100.00;99023.28;5108000;28;20099;-72
2023/04/01 01:00:18;;;;;;;3.65;2.90;;;;;;;11.32;100.00;99024.28;5108542;28;20047;-73
2023/04/01 01:02:46;;;;;;;5.93;2.60;;;;;;;11.28;100.00;99022.09;5106117;28;20023;-73
2023/04/01 01:05:15;;;;;;;4.68;2.30;;;;;;;11.26;100.00;99024.13;5108361;28;20102;-72
2023/04/01 01:07:53;;;;;;;3.40;2.55;;;;;;;11.12;100.00;98990.75;5107603;28;20114;-72
2023/04/01 01:10:21;;;;;;;4.22;2.20;;;;;;;11.30;100.00;99015.56;5107169;28;20299;-73
2023/04/01 01:13:11;;;;;;;2.95;2.08;;;;;;;11.32;100.00;99012.72;5106175;28;20024;-73
2023/04/01 01:15:46;;;;;;;4.35;2.38;;;;;;;11.10;100.00;98974.00;5107207;28;20042;-72
2023/04/01 01:18:37;;;;;;;6.57;2.38;;;;;;;11.29;100.00;99002.31;5105913;28;20190;-72
2023/04/01 01:21:47;;;;;;;3.22;1.92;;;;;;;11.29;100.00;99002.31;5105443;28;20487;-73
2023/04/01 01:24:21;;;;;;;3.00;2.08;;;;;;;11.24;100.00;99002.81;5099895;28;20039;-72
2023/04/01 01:26:53;;;;;;;3.63;1.90;;;;;;;11.24;100.00;98997.47;5107160;28;20039;-72
2023/04/01 01:29:43;;;;;;;2.95;1.80;;;;;;;11.21;100.00;99000.50;5106554;28;20395;-72
2023/04/01 01:32:18;;;;;;;2.60;2.00;;;;;;;11.19;100.00;99012.41;5106560;28;20019;-71
2023/04/01 01:35:21;;;;;;;2.63;2.13;;;;;;;11.17;100.00;99009.91;5105159;28;20035;-72
2023/04/01 01:37:51;;;;;;;3.75;1.90;;;;;;;11.18;100.00;99002.66;5104772;28;20042;-74
2023/04/01 01:40:17;;;;;;;2.25;1.52;;;;;;;11.17;100.00;99001.84;5104225;28;20035;-73
2023/04/01 01:42:50;;;;;;;3.10;1.98;;;;;;;11.08;100.00;98983.22;5106767;28;20102;-73
2023/04/01 01:45:20;;;;;;;4.38;2.08;;;;;;;11.14;100.00;99010.22;5107063;28;20134;-72
2023/04/01 01:47:46;;;;;;;3.53;1.90;;;;;;;11.00;100.00;98985.94;5106963;28;20383;-73
2023/04/01 01:50:15;;;;;;;1.92;1.60;;;;;;;11.09;100.00;99017.94;5103975;28;20452;-72
2023/04/01 01:52:41;;;;;;;2.72;1.92;;;;;;;11.12;100.00;99017.59;5105813;28;20032;-73
2023/04/01 01:55:28;;;;;;;3.35;2.65;;;;;;;11.08;100.00;99015.41;5105965;28;20077;-69
2023/04/01 01:57:57;;;;;;;2.50;2.00;;;;;;;11.07;100.00;99013.75;5104870;28;20076;-69
2023/04/01 02:00:23;;;;;;;2.53;1.90;;;;;;;10.86;100.00;98984.78;5104065;28;20058;-70
2023/04/01 02:02:50;;;;;;;2.67;1.85;;;;;;;11.04;100.00;99006.91;5105757;28;20077;-70
2023/04/01 02:05:20;;;;;;;3.25;1.88;;;;;;;11.01;100.00;98999.19;5106015;28;20413;-72
2023/04/01 02:08:01;;;;;;;2.78;1.58;;;;;;;10.94;100.00;98989.28;5106592;28;20440;-73
2023/04/01 02:10:28;;;;;;;2.72;2.00;;;;;;;10.95;100.00;98993.63;5104352;28;20042;-73
2023/04/01 02:13:01;;;;;;;3.63;1.80;;;;;;;11.06;100.00;99012.09;5104943;28;20019;-72
2023/04/01 02:15:30;;;;;;;2.42;1.55;;;;;;;10.81;100.00;98976.38;5105258;28;20583;-72
2023/04/01 02:17:57;;;;;;;2.13;1.92;;;;;;;10.98;100.00;99010.25;5104691;28;20759;-74
2023/04/01 02:20:24;;;;;;;5.10;1.98;;;;;;;10.94;100.00;99010.75;5105767;28;20082;-73
2023/04/01 02:22:53;;;;;;;2.75;1.80;;;;;;;10.93;100.00;99017.13;5105873;28;20030;-73
2023/04/01 02:25:23;;;;;;;3.28;2.47;;;;;;;10.89;100.00;99015.75;5104277;28;20031;-73
2023/04/01 02:27:49;;;;;;;3.42;1.90;;;;;;;10.87;100.00;99020.47;5105024;28;20122;-73
2023/04/01 02:30:16;;;;;;;4.07;1.80;;;;;;;10.88;100.00;99014.09;5106162;28;20106;-73
2023/04/01 02:32:42;;;;;;;3.60;2.53;;;;;;;10.73;100.00;98994.31;5106113;28;20081;-73
2023/04/01 02:35:15;;;;;;;5.90;2.00;;;;;;;10.80;100.00;99009.56;5104987;28;20031;-73
2023/04/01 02:37:43;;;;;;;3.58;1.92;;;;;;;10.69;100.00;98998.34;5106389;28;20055;-73
2023/04/01 02:40:12;;;;;;;3.97;2.58;;;;;;;10.82;100.00;99007.56;5106574;28;20046;-74
2023/04/01 02:42:38;;;;;;;2.67;2.08;;;;;;;10.79;100.00;99005.22;5106322;28;20379;-72
2023/04/01 02:45:05;;;;;;;5.68;2.15;;;;;;;10.76;100.00;98994.84;5106449;28;20024;-72
2023/04/01 02:47:30;;;;;;;2.38;1.80;;;;;;;10.74;100.00;98999.50;5106204;28;20506;-73
2023/04/01 02:49:58;;;;;;;2.78;2.10;;;;;;;10.83;100.00;99014.59;5106090;28;20118;-74
2023/04/01 02:52:28;;;;;;;2.75;2.03;;;;;;;10.90;100.00;99015.59;5105521;28;20127;-71
2023/04/01 02:54:54;;;;;;;3.80;2.13;;;;;;;10.87;100.00;99013.25;5103518;28;20612;-71
2023/04/01 02:57:19;;;;;;;2.40;2.20;;;;;;;10.81;100.00;99016.59;5104919;28;20110;-70
2023/04/01 02:59:45;;;;;;;4.95;2.10;;;;;;;10.78;100.00;99005.41;5105064;28;20100;-69
2023/04/01 03:02:11;;;;;;;2.85;2.20;;;;;;;10.68;100.00;98986.78;5104718;28;20102;-71
2023/04/01 03:04:36;;;;;;;4.03;2.35;;;;;;;10.73;100.00;99011.25;5104954;28;20102;-70
2023/04/01 03:07:02;;;;;;;3.22;2.28;;;;;;;10.70;100.00;98997.34;5103751;28;20039;-69
2023/04/01 03:09:28;;;;;;;4.22;2.47;;;;;;;10.69;100.00;99001.88;5104866;28;20027;-70
2023/04/01 03:11:54;;;;;;;3.63;2.17;;;;;;;10.69;100.00;99001.88;5105267;28;20075;-71
2023/04/01 03:14:19;;;;;;;3.53;2.35;;;;;;;10.70;100.00;98998.19;5104964;28;20107;-70
2023/04/01 03:16:45;;;;;;;4.55;2.53;;;;;;;10.54;100.00;98976.72;5104993;28;20035;-71
2023/04/01 03:19:10;;;;;;;4.45;2.22;;;;;;;10.56;100.00;98987.28;5104809;28;20046;-70
2023/04/01 03:21:36;;;;;;;2.65;2.05;;;;;;;10.56;100.00;99000.69;5104287;28;20031;-70
2023/04/01 03:24:01;;;;;;;3.13;2.50;;;;;;;10.46;100.00;98992.81;5104791;28;20024;-69
2023/04/01 03:26:27;;;;;;;3.83;2.22;;;;;;;10.54;100.00;99011.56;5104860;28;20036;-69
2023/04/01 03:28:53;;;;;;;5.55;2.35;;;;;;;10.58;100.00;99012.91;5108353;28;20055;-71
2023/04/01 03:31:19;;;;;;;3.08;2.10;;;;;;;10.46;100.00;98991.97;5107914;28;20111;-70
2023/04/01 03:33:45;;;;;;;4.75;2.30;;;;;;;10.52;100.00;99018.13;5107759;28;20481;-70
2023/04/01 03:36:12;;;;;;;2.38;1.95;;;;;;;10.46;100.00;99008.06;5106483;28;20031;-70
2023/04/01 03:38:38;;;;;;;2.70;2.20;;;;;;;10.39;100.00;99007.91;5106061;28;20502;-70
2023/04/01 03:41:04;;;;;;;2.25;1.90;;;;;;;10.45;100.00;99017.09;5108050;28;20039;-70
2023/04/01 03:43:29;;;;;;;3.78;2.50;;;;;;;10.38;100.00;98994.66;5107585;28;20038;-71
2023/04/01 03:45:57;;;;;;;2.95;2.03;;;;;;;10.52;100.00;99027.00;5107626;28;20053;-71
2023/04/01 03:48:22;;;;;;;3.47;2.20;;;;;;;10.37;100.00;99004.53;5106104;28;20267;-71
2023/04/01 03:50:48;;;;;;;2.75;2.08;;;;;;;10.28;100.00;98994.78;5107808;28;20019;-70
2023/04/01 03:53:13;;;;;;;2.22;1.95;;;;;;;10.47;100.00;99025.81;5105720;28;20031;-70
2023/04/01 03:55:39;;;;;;;1.85;1.70;;;;;;;10.51;100.00;99027.16;5107347;28;20027;-71
2023/04/01 03:58:06;;;;;;;3.30;1.98;;;;;;;10.27;100.00;98995.81;5107687;28;20076;-70
2023/04/01 04:00:32;;;;;;;3.00;2.10;;;;;;;10.43;100.00;99019.94;5106705;28;20502;-70
2023/04/01 04:02:58;;;;;;;2.00;1.80;;;;;;;10.48;100.00;99019.47;5106399;28;20084;-71
2023/04/01 04:05:24;;;;;;;3.35;2.08;;;;;;;10.46;100.00;99024.97;5107281;27;20106;-70
2023/04/01 04:07:51;;;;;;;2.47;2.10;;;;;;;10.47;100.00;99023.13;5107414;28;20043;-70
2023/04/01 04:10:16;;;;;;;2.92;2.15;;;;;;;10.43;100.00;99022.63;5107341;28;20055;-70
2023/04/01 04:12:42;;;;;;;4.70;2.33;;;;;;;10.46;100.00;99016.09;5107034;28;20062;-71
2023/04/01 04:15:08;;;;;;;3.92;2.30;;;;;;;10.38;100.00;98990.13;5106971;28;20035;-70
2023/04/01 04:17:34;;;;;;;5.20;2.40;;;;;;;10.40;100.00;99000.66;5106586;28;20130;-70
2023/04/01 04:19:59;;;;;;;2.88;1.95;;;;;;;10.52;100.00;99013.59;5107408;28;20800;-70
2023/04/01 04:22:25;;;;;;;3.50;2.50;;;;;;;10.33;100.00;98980.91;5107732;28;20036;-70
2023/04/01 04:24:51;;;;;;;4.13;2.40;;;;;;;10.39;100.00;99007.91;5107678;27;20032;-70
2023/04/01 04:27:16;;;;;;;4.32;2.42;;;;;;;10.31;100.00;98997.16;5107628;28;20111;-70
2023/04/01 04:29:42;;;;;;;3.42;1.98;;;;;;;10.47;100.00;99007.03;5105700;28;20031;-71
2023/04/01 04:32:08;;;;;;;3.60;2.33;;;;;;;10.18;100.00;98978.03;5107796;28;20110;-73
2023/04/01 04:34:33;;;;;;;3.97;2.80;;;;;;;10.31;100.00;99005.19;5108542;28;20111;-73
2023/04/01 04:36:59;;;;;;;2.95;2.53;;;;;;;10.06;100.00;98968.63;5107741;28;20023;-73
2023/04/01 04:39:24;;;;;;;5.00;2.97;;;;;;;10.21;100.00;98983.06;5107695;28;20088;-73
2023/04/01 04:41:50;;;;;;;3.75;2.25;;;;;;;10.06;100.00;98965.94;5108406;28;21954;-73
2023/04/01 04:44:15;;;;;;;3.50;2.53;;;;;;;10.09;100.00;98981.69;5108889;28;20038;-74
2023/04/01 04:46:41;;;;;;;2.95;2.58;;;;;;;10.11;100.00;98977.03;5109285;28;20051;-74
2023/04/01 04:49:07;;;;;;;4.28;2.55;;;;;;;10.17;100.00;99005.00;5107849;28;20433;-74
2023/04/01 04:51:35;;;;;;;2.75;2.38;;;;;;;10.06;100.00;98992.72;5108413;28;20036;-74
2023/04/01 04:54:05;;;;;;;3.70;2.60;;;;;;;10.14;100.00;99014.19;5107294;28;20027;-70
2023/04/01 04:56:31;;;;;;;4.45;2.85;;;;;;;10.02;100.00;98988.69;5107016;28;20019;-71
2023/04/01 04:58:57;;;;;;;3.38;3.08;;;;;;;10.15;100.00;99015.00;5107276;28;20117;-70
2023/04/01 05:01:23;;;;;;;7.45;3.20;;;;;;;10.21;100.00;99017.03;5106317;28;20112;-71
2023/04/01 05:03:49;;;;;;;5.63;2.78;;;;;;;10.15;100.00;99010.50;5107007;28;21440;-70
2023/04/01 05:06:16;;;;;;;5.68;3.38;;;;;;;10.19;100.00;99011.84;5106952;28;20073;-70
2023/04/01 05:08:43;;;;;;;5.93;3.10;;;;;;;10.18;100.00;98980.72;5106369;28;20028;-71
2023/04/01 05:11:15;;;;;;;5.55;2.92;;;;;;;10.37;100.00;98998.31;5106791;28;20016;-70
2023/04/01 05:13:41;;;;;;;5.13;2.60;;;;;;;10.32;100.00;98982.72;5106650;28;20111;-71
2023/04/01 05:16:12;;;;;;;3.38;2.55;;;;;;;10.45;100.00;98990.31;5106572;28;20106;-70
2023/04/01 05:18:37;;;;;;;4.25;3.05;;;;;;;10.43;100.00;98974.38;5106063;28;20039;-70
2023/04/01 05:21:03;;;;;;;6.00;3.00;;;;;;;10.26;100.00;98970.03;5106375;28;20027;-71
2023/04/01 05:23:32;;;;;;;6.80;3.42;;;;;;;10.26;100.00;98958.47;5106165;28;20035;-70
2023/04/01 05:25:57;;;;;;;3.80;2.85;;;;;;;10.46;100.00;98994.66;5104440;28;20023;-71
2023/04/01 05:28:22;;;;;;;5.05;3.13;;;;;;;10.43;100.00;99001.19;5104486;28;20115;-71
2023/04/01 05:30:48;;;;;;;6.88;3.03;;;;;;;10.49;100.00;99008.56;5106483;28;20110;-71
2023/04/01 05:33:14;;;;;;;3.95;2.85;;;;;;;10.55;100.00;99013.25;5106244;28;20043;-72
2023/04/01 05:35:40;;;;;;;4.10;2.72;;;;;;;10.42;100.00;98978.06;5106246;27;20387;-71
2023/04/01 05:38:06;;;;;;;3.65;2.50;;;;;;;10.60;100.00;99007.38;5102805;28;20030;-71
2023/04/01 05:40:32;;;;;;;4.88;2.85;;;;;;;10.66;100.00;98996.84;5106406;28;20035;-70
2023/04/01 05:42:59;;;;;;;5.28;3.20;;;;;;;10.80;100.00;98993.47;5106242;28;20032;-71
2023/04/01 05:45:25;;;;;;;4.47;2.80;;;;;;;10.93;100.00;98991.13;5106057;28;20541;-72
2023/04/01 05:47:50;;;;;;;4.50;2.90;;;;;;;10.94;100.00;98975.88;5106193;28;20042;-72
2023/04/01 05:50:16;;;;;;;5.93;3.65;;;;;;;11.05;100.00;98997.81;5103695;28;20477;-71
2023/04/01 05:52:41;;;;;;;6.20;3.78;;;;;;;11.02;100.00;98998.16;5105239;28;20037;-72
2023/04/01 05:55:08;;;;;;;8.85;5.57;;;;;;;11.08;100.00;98994.81;5112545;28;20055;-74
2023/04/01 05:57:34;;;;;;;8.63;5.18;;;;;;;11.19;100.00;98994.44;5122163;28;20099;-74
2023/04/01 05:59:59;;;;;;;9.05;6.32;;;;;;;11.34;100.00;99000.78;5123967;28;20023;-74
2023/04/01 06:02:25;;;;;;;8.88;6.35;;;;;;;11.43;100.00;98994.41;5122582;28;20016;-74
2023/04/01 06:05:02;;;;;;;8.45;6.25;;;;;;;11.48;100.00;99001.91;5113064;28;20027;-74
2023/04/01 06:07:28;;;;;;;9.30;6.25;;;;;;;11.31;100.00;98973.44;5104978;28;20055;-71
2023/04/01 06:09:54;;;;;;;14.85;7.45;;;;;;;11.47;100.00;99001.09;5105103;28;20479;-70
2023/04/01 06:12:45;;;;;;;10.25;7.10;;;;;;;11.45;100.00;98991.53;5106143;28;20383;-71
2023/04/01 06:15:52;;;;;;;10.93;7.15;;;;;;;11.46;100.00;98988.69;5106775;28;20646;-73
2023/04/01 06:18:50;;;;;;;13.23;7.90;;;;;;;11.53;100.00;98986.97;5071346;28;20043;-71
2023/04/01 06:21:37;;;;;;;11.55;7.90;;;;;;;11.44;100.00;98969.22;5104381;28;20024;-71
2023/04/01 06:24:24;;;;;;;14.60;8.02;;;;;;;11.53;100.00;98994.19;5106906;28;20020;-71
2023/04/01 06:26:59;;;;;;;12.50;7.30;;;;;;;11.51;100.00;98986.31;5107758;28;20019;-71
2023/04/01 06:29:40;;;;;;;14.80;7.40;;;;;;;11.64;100.00;98995.69;5106416;28;20117;-71
2023/04/01 06:32:23;;;;;;;13.15;7.47;;;;;;;11.58;100.00;98995.34;5108694;28;20395;-72
2023/04/01 06:35:16;;;;;;;12.35;7.25;;;;;;;11.54;100.00;98980.59;5106126;28;20050;-72
2023/04/01 06:37:53;;;;;;;12.05;6.28;;;;;;;11.68;100.00;99005.94;5107727;28;20043;-71
2023/04/01 06:40:49;;;;;;;10.98;6.38;;;;;;;11.64;100.00;98991.16;5107774;28;20077;-70
2023/04/01 06:43:52;;;;;;;11.45;6.47;;;;;;;11.76;100.00;98988.91;5105125;28;20020;-71
2023/04/01 06:46:17;;;;;;;9.15;4.93;;;;;;;11.73;100.00;98987.44;5106420;28;20114;-71
2023/04/01 06:49:00;;;;;;;8.75;5.00;;;;;;;11.72;100.00;98987.59;5107757;28;20177;-71
2023/04/01 06:51:31;;;;;;;8.68;4.60;;;;;;;11.75;98.86;98996.16;5106705;28;20034;-71
2023/04/01 06:54:06;;;;;;;5.55;3.75;;;;;;;11.75;98.68;98998.00;5107788;28;20027;-70
2023/04/01 06:59:37;;;;;;;5.25;2.90;;;;;;;11.90;96.60;99007.81;5108168;22;19980;-75
2023/04/01 07:02:39;;;;;;;3.60;2.90;;;;;;;11.87;96.55;99002.81;5090436;28;20499;-75
2023/04/01 07:05:06;;;;;;;5.90;2.60;;;;;;;11.89;95.91;99002.63;5070375;28;20033;-75
2023/04/01 07:07:41;;;;;;;6.47;2.85;;;;;;;11.89;96.74;98999.94;5072947;28;20063;-75
2023/04/01 07:10:16;;;;;;;7.57;3.45;;;;;;;11.94;96.21;98992.22;5091460;28;20091;-75
2023/04/01 07:12:57;;;;;;;7.63;3.83;;;;;;;11.87;97.68;98999.28;5091352;28;20475;-74
2023/04/01 07:15:43;;;;;;;5.68;3.90;;;;;;;12.00;96.30;98997.72;5091140;28;20502;-74
2023/04/01 07:18:28;;;;;;;7.03;3.28;;;;;;;11.99;96.04;98996.03;5087904;28;20105;-74
2023/04/01 07:20:55;;;;;;;7.38;2.65;;;;;;;12.04;95.23;98990.13;5089406;28;20523;-75
2023/04/01 07:23:24;;;;;;;5.70;2.78;;;;;;;12.07;94.40;99004.06;5091341;28;20062;-74
2023/04/01 07:26:21;;;;;;;5.47;2.38;;;;;;;12.08;94.65;99004.88;5073347;28;20023;-75
2023/04/01 07:28:48;;;;;;;3.60;2.67;;;;;;;11.95;95.81;98994.72;5066103;28;20039;-73
2023/04/01 07:31:39;;;;;;;4.38;2.65;;;;;;;11.97;95.70;98998.06;5091819;28;20089;-74
2023/04/01 07:34:29;;;;;;;3.70;2.55;;;;;;;11.89;95.71;98999.94;5071100;28;20608;-76
2023/04/01 07:37:10;;;;;;;5.15;2.33;;;;;;;11.84;96.16;98987.06;5022793;28;20079;-74
2023/04/01 07:39:53;;;;;;;4.75;1.88;;;;;;;12.15;93.98;99008.56;5071716;28;20434;-74
2023/04/01 07:42:27;;;;;;;4.50;1.87;;;;;;;12.18;93.36;99011.72;5089249;28;20032;-74
2023/04/01 07:45:10;;;;;;;;;;;;;;;12.18;92.86;99009.03;5071598;28;20024;-73
2023/04/01 07:48:00;;;;;;;4.47;1.98;;;;;;;12.14;91.73;99020.31;5072741;28;19912;-74
2023/04/01 07:50:32;;;;;;;3.33;1.88;;;;;;;12.27;91.47;99026.78;5072810;28;20043;-74
2023/04/01 07:53:16;;;;;;;4.13;1.70;;;;;;;12.23;89.21;99001.28;5090593;28;20024;-74
2023/04/01 07:56:03;;;;;;;1.98;1.70;;;;;;;12.31;89.93;99021.88;5088726;28;20111;-75
2023/04/01 07:58:51;;;;;;;3.97;1.70;;;;;;;12.37;89.84;99021.19;5090897;28;20032;-74
2023/04/01 08:01:29;;;;;;;3.15;1.45;;;;;;;12.31;90.21;99019.19;5071089;28;20067;-74
2023/04/01 08:04:01;;;;;;;2.72;1.25;;;;;;;12.27;90.77;99018.72;5090191;28;20036;-74
2023/04/01 08:06:52;;;;;;;5.80;1.77;;;;;;;12.38;89.30;99020.19;5091366;28;20046;-75
2023/04/01 08:09:34;;;;;;;2.75;1.60;;;;;;;12.51;86.53;99015.06;5091650;28;20028;-74
2023/04/01 08:12:43;;;;;;;3.20;1.90;;;;;;;12.41;87.52;99017.16;5089401;28;20032;-74
2023/04/01 08:15:27;;;;;;;3.45;2.10;;;;;;;12.50;84.89;99024.97;5010207;28;20090;-74
2023/04/01 08:18:37;;;;;;;8.27;2.60;;;;;;;12.41;85.55;99014.47;5070267;28;20036;-72
2023/04/01 08:21:10;;;;;;;4.32;2.22;;;;;;;12.47;85.69;99028.00;5027235;28;20475;-71
2023/04/01 08:23:45;;;;;;;4.30;1.50;;;;;;;12.44;84.80;99014.06;5010433;28;20430;-72
2023/04/01 08:26:15;;;;;;;3.22;1.25;;;;;;;12.58;83.71;99024.91;5064018;28;20044;-71
2023/04/01 08:28:47;;;;;;;4.40;1.80;;;;;;;12.45;84.17;99002.31;5089846;28;20031;-70
2023/04/01 08:31:24;;;;;;;3.45;1.63;;;;;;;12.55;85.74;99024.44;5089787;28;20048;-72
2023/04/01 08:33:54;;;;;;;4.75;1.70;;;;;;;12.70;82.59;99026.16;5090031;28;20027;-70
2023/04/01 08:36:33;;;;;;;7.35;1.88;;;;;;;12.59;83.69;99015.00;5090163;28;20742;-71
2023/04/01 08:39:05;;;;;;;7.18;2.00;;;;;;;12.73;82.56;99019.59;5089290;28;20028;-71
2023/04/01 08:42:18;;;;;;;3.17;1.02;;;;;;;12.70;80.19;99004.66;5072142;28;20123;-71
2023/04/01 08:45:10;;;;;;;2.08;0.88;;;;;;;12.66;82.74;99015.94;5088329;28;20028;-70
2023/04/01 08:48:12;;;;;;;2.60;1.45;;;;;;;12.67;82.63;99012.25;5090379;28;20515;-72
2023/04/01 08:51:02;;;;;;;3.92;1.25;;;;;;;12.85;80.08;99013.63;5088856;28;20027;-70
2023/04/01 08:53:40;;;;;;;3.83;1.70;;;;;;;12.92;81.15;99016.41;5089537;28;20020;-70
2023/04/01 08:56:23;;;;;;;4.13;1.40;;;;;;;12.80;81.43;99018.69;5087179;28;20078;-71
2023/04/01 08:59:10;;;;;;;5.37;1.73;;;;;;;12.93;81.88;99023.47;5087882;28;20040;-70
2023/04/01 09:01:51;;;;;;;6.30;1.63;;;;;;;12.94;82.01;99022.44;5086442;28;20119;-70
2023/04/01 09:04:55;;;;;;;2.53;1.50;;;;;;;12.90;82.03;99007.69;5087340;28;20057;-71
2023/04/01 09:07:29;;;;;;;2.15;1.40;;;;;;;13.22;78.09;99031.66;5040531;28;20061;-71
2023/04/01 09:10:05;;;;;;;3.03;1.38;;;;;;;13.21;78.50;99017.34;5070501;28;20059;-73
2023/04/01 09:12:52;;;;;;;4.15;1.55;;;;;;;13.23;77.76;99028.75;5088830;28;20024;-71
2023/04/01 09:15:34;;;;;;;5.47;1.42;;;;;;;13.18;78.34;99006.09;5088512;28;20491;-72
2023/04/01 09:18:02;;;;;;;2.92;1.40;;;;;;;13.15;79.89;99020.78;5088764;28;20027;-71
2023/04/01 09:20:31;;;;;;;3.00;1.27;;;;;;;13.31;78.25;99020.63;5088309;28;20440;-74
2023/04/01 09:23:29;;;;;;;3.40;1.48;;;;;;;13.50;75.85;99017.41;5088856;28;20038;-75
2023/04/01 09:26:00;;;;;;;5.20;1.90;;;;;;;13.56;75.53;99015.81;5068638;28;20047;-75
2023/04/01 09:28:57;;;;;;;5.80;1.77;;;;;;;13.69;76.05;99021.38;5087820;28;20032;-74
2023/04/01 09:31:43;;;;;;;3.78;1.77;;;;;;;13.70;75.59;99015.81;5071853;28;20028;-74
2023/04/01 09:34:20;;;;;;;3.45;1.80;;;;;;;13.63;75.44;99017.59;5089219;28;20040;-74
2023/04/01 09:37:01;;;;;;;4.72;2.13;;;;;;;13.60;76.34;99006.31;5088142;28;20050;-74
2023/04/01 09:39:32;;;;;;;4.00;1.70;;;;;;;13.76;75.45;99021.50;5071983;28;20135;-74
2023/04/01 09:42:12;;;;;;;3.90;1.90;;;;;;;13.81;74.12;99019.06;5089775;28;20506;-75
2023/04/01 09:44:53;;;;;;;3.15;1.90;;;;;;;13.68;75.40;99022.41;5087425;28;20020;-75
2023/04/01 09:47:51;;;;;;;5.95;1.98;;;;;;;13.76;76.35;99011.53;5071267;28;20115;-74
2023/04/01 09:50:17;;;;;;;3.83;1.67;;;;;;;13.88;75.39;99034.31;5045618;28;20051;-75
2023/04/01 09:53:10;;;;;;;4.55;1.85;;;;;;;14.05;72.76;99033.06;5089112;28;20041;-74
2023/04/01 09:55:54;;;;;;;3.28;1.73;;;;;;;14.10;71.89;99032.50;5086873;28;20109;-74
2023/04/01 09:58:19;;;;;;;4.30;1.85;;;;;;;14.26;71.35;99030.47;5089261;28;20404;-75
2023/04/01 10:01:16;;;;;;;8.07;2.13;;;;;;;14.35;69.62;99025.81;5071241;28;20028;-75
2023/04/01 10:03:49;;;;;;;3.15;2.10;;;;;;;14.36;68.50;99012.13;5087911;28;20023;-75
2023/04/01 10:06:45;;;;;;;2.95;1.88;;;;;;;14.32;70.19;99018.09;5089195;28;20029;-75
2023/04/01 10:09:48;;;;;;;5.57;1.55;;;;;;;14.56;68.54;99020.44;5071062;28;20533;-75
2023/04/01 10:12:42;;;;;;;3.88;1.95;;;;;;;14.73;67.60;99013.75;5088033;28;20031;-74
2023/04/01 10:15:43;;;;;;;4.32;1.98;;;;;;;14.91;66.68;99012.28;5076946;28;20173;-71
2023/04/01 10:18:39;;;;;;;4.35;1.95;;;;;;;15.00;66.65;99012.97;5087018;28;20403;-72
2023/04/01 10:21:32;;;;;;;3.72;1.73;;;;;;;14.97;67.83;99013.38;5087798;28;20032;-72
2023/04/01 10:24:33;;;;;;;3.50;1.45;;;;;;;15.10;66.65;99016.19;5068946;28;20012;-72
2023/04/01 10:27:35;;;;;;;2.92;1.67;;;;;;;15.47;63.44;99016.72;5069751;28;20403;-71
2023/04/01 10:30:23;;;;;;;4.75;1.77;;;;;;;15.51;64.10;99011.75;5071878;28;20020;-71
2023/04/01 10:33:31;;;;;;;4.97;1.98;;;;;;;15.39;64.96;99006.06;5088863;28;20450;-71
2023/04/01 10:36:17;;;;;;;4.93;1.90;;;;;;;15.22;66.29;99012.75;5087556;28;20028;-71
2023/04/01 10:39:21;;;;;;;6.90;3.08;;;;;;;15.27;66.67;99017.56;5086804;28;20020;-71
2023/04/01 10:42:11;;;;;;;6.45;1.83;;;;;;;15.21;66.03;99016.47;5086727;28;20114;-72
2023/04/01 10:45:07;;;;;;;5.30;2.25;;;;;;;15.12;67.10;99011.44;5077476;28;20451;-72
2023/04/01 10:47:59;;;;;;;5.47;1.73;;;;;;;15.26;65.53;99000.50;5072149;28;20032;-73
2023/04/01 10:50:56;;;;;;;3.67;1.52;;;;;;;15.30;66.10;99018.03;5070923;28;20027;-74
2023/04/01 10:53:40;;;;;;;6.63;1.55;;;;;;;15.12;67.94;99012.25;5087693;28;20036;-74
2023/04/01 10:56:25;;;;;;;3.70;1.95;;;;;;;15.25;67.71;99011.53;5087735;28;20429;-74
2023/04/01 10:59:17;;;;;;;4.75;1.45;;;;;;;15.23;68.15;99005.47;5066864;28;20047;-73
2023/04/01 11:02:04;;;;;;;5.13;1.85;;;;;;;15.52;66.06;99006.16;5073745;28;20055;-73
2023/04/01 11:05:19;;;;;;;2.10;1.25;;;;;;;15.53;62.50;98991.59;5086653;28;20028;-74
2023/04/01 11:08:03;;;;;;;4.50;1.67;;;;;;;15.83;60.14;99009.25;5084658;28;20032;-73
2023/04/01 11:10:46;;;;;;;2.72;0.80;;;;;;;15.65;60.87;99013.50;5086711;28;20020;-73
2023/04/01 11:13:37;;;;;;;3.45;1.52;;;;;;;15.57;61.81;99009.09;5066753;28;20031;-72
2023/04/01 11:16:36;;;;;;;3.25;1.52;;;;;;;15.82;60.27;99002.19;5084115;28;20028;-72
2023/04/01 11:19:39;;;;;;;2.60;1.30;;;;;;;15.82;60.10;99004.03;5086904;28;20108;-73
2023/04/01 11:22:29;;;;;;;3.72;1.55;;;;;;;15.93;58.63;99011.59;5068299;28;20066;-73
2023/04/01 11:25:00;;;;;;;3.38;1.80;;;;;;;15.99;58.48;99007.25;5085272;28;20031;-74
2023/04/01 11:27:50;;;;;;;4.07;1.48;;;;;;;15.89;59.27;99005.75;5086486;28;20479;-73
2023/04/01 11:30:19;;;;;;;4.72;1.92;;;;;;;15.85;59.13;99004.47;5085542;28;20036;-74
2023/04/01 11:33:18;;;;;;;1.92;1.05;;;;;;;15.99;57.23;99009.97;5087087;28;20460;-74
2023/04/01 11:36:19;;;;;;;3.50;1.23;;;;;;;15.82;57.56;99004.88;5085443;28;20032;-74
2023/04/01 11:38:53;;;;;;;2.38;0.95;;;;;;;15.76;57.88;99002.97;5070657;28;20048;-74
2023/04/01 11:41:34;;;;;;;3.85;1.00;;;;;;;15.97;56.81;99001.19;5086971;28;20036;-73
2023/04/01 11:44:18;;;;;;;4.70;1.60;;;;;;;15.78;58.26;99011.72;5067122;28;20076;-74
2023/04/01 11:47:02;;;;;;;3.40;2.00;;;;;;;15.90;58.49;99006.59;5086169;28;20497;-74
2023/04/01 11:49:49;;;;;;;5.63;1.58;;;;;;;15.92;58.80;99014.50;5090033;28;20089;-74
2023/04/01 11:52:30;;;;;;;3.08;1.40;;;;;;;16.02;58.96;99020.38;5090272;28;20040;-74
2023/04/01 11:55:17;;;;;;;3.83;1.75;;;;;;;15.87;59.27;99013.22;5089828;28;20093;-74
2023/04/01 11:58:30;;;;;;;4.20;1.83;;;;;;;15.91;59.88;99013.66;5088428;28;20024;-74
2023/04/01 12:00:59;;;;;;;2.88;1.65;;;;;;;16.06;58.49;99016.22;5063020;28;20181;-72
2023/04/01 12:03:37;;;;;;;4.68;1.75;;;;;;;16.13;57.90;99006.25;5072525;28;20081;-73
2023/04/01 12:06:13;;;;;;;3.25;1.40;;;;;;;16.23;57.51;99020.25;5088816;28;20076;-73
2023/04/01 12:09:16;;;;;;;3.25;1.20;;;;;;;16.18;56.68;99026.25;5091216;28;20483;-73
2023/04/01 12:12:08;;;;;;;3.80;1.65;;;;;;;16.19;56.42;99027.09;5089816;28;20043;-73
2023/04/01 12:14:47;;;;;;;3.20;1.30;;;;;;;16.14;55.67;99022.28;5089382;28;20051;-73